Celsius Malaga — V7QT5 — position and weather

sailwx.info

Track history (hours):
 
Tides and Currents Weather Stations Pressure Air Temp Water Temp Dewpoint Dewpoint Depression Visibility Wind Speed Wind Dir Waves Ship Positions

Celsius Malaga

Last reported at 2017-Jan-19 10:32 UTC. Time now 2017-Jan-19 10:58 UTC.
Position S 24°07' W 046°21'.

Length 147 m; draft 6.4 m.

MMSI: 538003434.

Date/timePositionNaut miles runAvg speedWind from/ knotsBaromVisibWave heightAir tempDewpointWater temp
2017-Jan-19 10:32S 24°07' W 046°21'0 0.1
2017-Jan-19 09:32S 24°07' W 046°21'0 0.0
2017-Jan-19 08:32S 24°07' W 046°21'0 0.0
2017-Jan-19 07:31S 24°07' W 046°21'0 0.0
2017-Jan-19 06:29S 24°07' W 046°21'0 0.0
2017-Jan-19 05:31S 24°07' W 046°21'0 0.0
2017-Jan-19 04:31S 24°07' W 046°21'0 0.0
2017-Jan-19 03:29S 24°07' W 046°21'0 0.0
2017-Jan-19 02:29S 24°07' W 046°21'0 0.0
2017-Jan-19 01:31S 24°07' W 046°21'0 0.0
2017-Jan-19 00:31S 24°07' W 046°21'0 0.0
2017-Jan-18 23:32S 24°07' W 046°21'0 0.0
2017-Jan-18 22:28S 24°07' W 046°21'0 0.0
2017-Jan-18 21:32S 24°07' W 046°21'0 0.0
2017-Jan-18 20:31S 24°07' W 046°21'0 0.0
2017-Jan-18 19:22S 24°07' W 046°21'0 0.0
2017-Jan-18 18:31S 24°07' W 046°21'0 0.0
2017-Jan-18 17:32S 24°07' W 046°21'0 0.0
2017-Jan-18 16:31S 24°07' W 046°21'0 0.0
2017-Jan-18 15:31S 24°07' W 046°21'0 0.0
2017-Jan-18 14:25S 24°07' W 046°21'0 0.0
2017-Jan-18 13:31S 24°07' W 046°21'0 0.0
2017-Jan-18 12:31S 24°07' W 046°21'0 0.0
2017-Jan-18 11:31S 24°07' W 046°21'0 0.0
2017-Jan-18 10:31S 24°07' W 046°21'0 0.0
2017-Jan-18 09:28S 24°07' W 046°21'0 0.0
2017-Jan-18 08:31S 24°07' W 046°21'0 0.0
2017-Jan-18 07:31S 24°07' W 046°21'0 0.0
2017-Jan-18 06:31S 24°07' W 046°21'0 0.0
2017-Jan-18 05:31S 24°07' W 046°21'0 0.0
2017-Jan-18 04:31S 24°07' W 046°21'0 0.0
2017-Jan-18 03:31S 24°07' W 046°21'0 0.0
2017-Jan-18 02:22S 24°07' W 046°21'0 0.0
2017-Jan-18 01:31S 24°07' W 046°21'0 0.0
2017-Jan-18 00:31S 24°07' W 046°21'0 0.0
2017-Jan-17 23:31S 24°07' W 046°21'1 1.5
2017-Jan-17 22:33S 24°07' W 046°22'7 7.4
2017-Jan-17 21:34S 23°60' W 046°20'3 0.1
2017-Jan-16 19:14S 23°57' W 046°18'4 6.3
2017-Jan-16 18:33S 24°01' W 046°21'9 8.7
2017-Jan-16 17:33S 24°09' W 046°25'1 1.5
2017-Jan-16 16:33S 24°10' W 046°25'1 0.7
2017-Jan-16 15:33S 24°10' W 046°25'5 4.8
2017-Jan-16 14:31S 24°08' W 046°20'0 0.1
2017-Jan-16 13:28S 24°08' W 046°19'0 0.0
2017-Jan-16 12:31S 24°08' W 046°19'0 0.0
2017-Jan-16 11:25S 24°08' W 046°19'0 0.0
2017-Jan-16 10:28S 24°08' W 046°19'0 0.0
2017-Jan-16 09:31S 24°08' W 046°19'0 0.1
2017-Jan-16 08:31S 24°09' W 046°19'0 0.1
2017-Jan-16 07:31S 24°08' W 046°20'0 0.0
2017-Jan-16 06:31S 24°08' W 046°20'0 0.0
2017-Jan-16 05:28S 24°08' W 046°20'0 0.0
2017-Jan-16 04:31S 24°08' W 046°20'0 0.0
2017-Jan-16 03:19S 24°08' W 046°20'0 0.0
2017-Jan-16 02:31S 24°08' W 046°20'0 0.0
2017-Jan-16 01:31S 24°08' W 046°20'0 0.0
2017-Jan-16 00:31S 24°08' W 046°20'0 0.0
2017-Jan-15 23:31S 24°08' W 046°20'0 0.0
2017-Jan-15 22:31S 24°08' W 046°20'0 0.0
2017-Jan-15 21:31S 24°08' W 046°20'0 0.0
2017-Jan-15 20:28S 24°08' W 046°20'0 0.0
2017-Jan-15 19:31S 24°08' W 046°20'0 0.0
2017-Jan-15 18:31S 24°08' W 046°20'0 0.0
2017-Jan-15 17:31S 24°08' W 046°19'0 0.0
2017-Jan-15 16:31S 24°08' W 046°19'0 0.0
2017-Jan-15 15:31S 24°08' W 046°19'0 0.0
2017-Jan-15 14:28S 24°08' W 046°19'0 0.1
2017-Jan-15 13:31S 24°08' W 046°20'0 0.1
2017-Jan-15 12:25S 24°09' W 046°19'0 0.0
2017-Jan-15 11:31S 24°09' W 046°20'0 0.0
2017-Jan-15 10:25S 24°09' W 046°20'0 0.1
2017-Jan-15 09:31S 24°08' W 046°20'0 0.0
2017-Jan-15 08:31S 24°08' W 046°20'0 0.0
2017-Jan-15 07:31S 24°08' W 046°20'0 0.0
2017-Jan-15 06:28S 24°08' W 046°20'0 0.0
2017-Jan-15 05:31S 24°08' W 046°20'0 0.0
2017-Jan-15 04:31S 24°08' W 046°20'0 0.0
2017-Jan-15 03:31S 24°08' W 046°20'0 0.0
2017-Jan-15 02:31S 24°08' W 046°20'0 0.0
2017-Jan-15 01:31S 24°08' W 046°20'0 0.0
2017-Jan-15 00:31S 24°08' W 046°20'0 0.0
2017-Jan-14 23:31S 24°08' W 046°20'0 0.1
2017-Jan-14 22:31S 24°09' W 046°20'0 0.1
2017-Jan-14 21:33S 24°09' W 046°19'5 5.3
2017-Jan-14 20:33S 24°14' W 046°21'1211.7
2017-Jan-14 19:33S 24°24' W 046°26'1312.9
2017-Jan-14 18:33S 24°34' W 046°35'  
2017-Jan-09 22:18S 25°40' W 048°15'0 0.0
2017-Jan-09 21:33S 25°40' W 048°16'0 0.0
2017-Jan-09 20:27S 25°40' W 048°16'  
Track history (hours):
 
Tides and Currents Weather Stations Pressure Air Temp Water Temp Dewpoint Dewpoint Depression Visibility Wind Speed Wind Dir Waves Ship Positions

Celsius Malaga

Last reported at 2017-Jan-19 10:32 UTC. Time now 2017-Jan-19 10:58 UTC.
Position S 24°07' W 046°21'.

Length 147 m; draft 6.4 m.

MMSI: 538003434.

Date/timePositionNaut miles runAvg speedWind from/ knotsBaromVisibWave heightAir tempDewpointWater temp
2017-Jan-19 10:32S 24°07' W 046°21'0 0.1
2017-Jan-19 09:32S 24°07' W 046°21'0 0.0
2017-Jan-19 08:32S 24°07' W 046°21'0 0.0
2017-Jan-19 07:31S 24°07' W 046°21'0 0.0
2017-Jan-19 06:29S 24°07' W 046°21'0 0.0
2017-Jan-19 05:31S 24°07' W 046°21'0 0.0
2017-Jan-19 04:31S 24°07' W 046°21'0 0.0
2017-Jan-19 03:29S 24°07' W 046°21'0 0.0
2017-Jan-19 02:29S 24°07' W 046°21'0 0.0
2017-Jan-19 01:31S 24°07' W 046°21'0 0.0
2017-Jan-19 00:31S 24°07' W 046°21'0 0.0
2017-Jan-18 23:32S 24°07' W 046°21'0 0.0
2017-Jan-18 22:28S 24°07' W 046°21'0 0.0
2017-Jan-18 21:32S 24°07' W 046°21'0 0.0
2017-Jan-18 20:31S 24°07' W 046°21'0 0.0
2017-Jan-18 19:22S 24°07' W 046°21'0 0.0
2017-Jan-18 18:31S 24°07' W 046°21'0 0.0
2017-Jan-18 17:32S 24°07' W 046°21'0 0.0
2017-Jan-18 16:31S 24°07' W 046°21'0 0.0
2017-Jan-18 15:31S 24°07' W 046°21'0 0.0
2017-Jan-18 14:25S 24°07' W 046°21'0 0.0
2017-Jan-18 13:31S 24°07' W 046°21'0 0.0
2017-Jan-18 12:31S 24°07' W 046°21'0 0.0
2017-Jan-18 11:31S 24°07' W 046°21'0 0.0
2017-Jan-18 10:31S 24°07' W 046°21'0 0.0
2017-Jan-18 09:28S 24°07' W 046°21'0 0.0
2017-Jan-18 08:31S 24°07' W 046°21'0 0.0
2017-Jan-18 07:31S 24°07' W 046°21'0 0.0
2017-Jan-18 06:31S 24°07' W 046°21'0 0.0
2017-Jan-18 05:31S 24°07' W 046°21'0 0.0
2017-Jan-18 04:31S 24°07' W 046°21'0 0.0
2017-Jan-18 03:31S 24°07' W 046°21'0 0.0
2017-Jan-18 02:22S 24°07' W 046°21'0 0.0
2017-Jan-18 01:31S 24°07' W 046°21'0 0.0
2017-Jan-18 00:31S 24°07' W 046°21'0 0.0
2017-Jan-17 23:31S 24°07' W 046°21'1 1.5
2017-Jan-17 22:33S 24°07' W 046°22'7 7.4
2017-Jan-17 21:34S 23°60' W 046°20'3 0.1
2017-Jan-16 19:14S 23°57' W 046°18'4 6.3
2017-Jan-16 18:33S 24°01' W 046°21'9 8.7
2017-Jan-16 17:33S 24°09' W 046°25'1 1.5
2017-Jan-16 16:33S 24°10' W 046°25'1 0.7
2017-Jan-16 15:33S 24°10' W 046°25'5 4.8
2017-Jan-16 14:31S 24°08' W 046°20'0 0.1
2017-Jan-16 13:28S 24°08' W 046°19'0 0.0
2017-Jan-16 12:31S 24°08' W 046°19'0 0.0
2017-Jan-16 11:25S 24°08' W 046°19'0 0.0
2017-Jan-16 10:28S 24°08' W 046°19'0 0.0
2017-Jan-16 09:31S 24°08' W 046°19'0 0.1
2017-Jan-16 08:31S 24°09' W 046°19'0 0.1
2017-Jan-16 07:31S 24°08' W 046°20'0 0.0
2017-Jan-16 06:31S 24°08' W 046°20'0 0.0
2017-Jan-16 05:28S 24°08' W 046°20'0 0.0
2017-Jan-16 04:31S 24°08' W 046°20'0 0.0
2017-Jan-16 03:19S 24°08' W 046°20'0 0.0
2017-Jan-16 02:31S 24°08' W 046°20'0 0.0
2017-Jan-16 01:31S 24°08' W 046°20'0 0.0
2017-Jan-16 00:31S 24°08' W 046°20'0 0.0
2017-Jan-15 23:31S 24°08' W 046°20'0 0.0
2017-Jan-15 22:31S 24°08' W 046°20'0 0.0
2017-Jan-15 21:31S 24°08' W 046°20'0 0.0
2017-Jan-15 20:28S 24°08' W 046°20'0 0.0
2017-Jan-15 19:31S 24°08' W 046°20'0 0.0
2017-Jan-15 18:31S 24°08' W 046°20'0 0.0
2017-Jan-15 17:31S 24°08' W 046°19'0 0.0
2017-Jan-15 16:31S 24°08' W 046°19'0 0.0
2017-Jan-15 15:31S 24°08' W 046°19'0 0.0
2017-Jan-15 14:28S 24°08' W 046°19'0 0.1
2017-Jan-15 13:31S 24°08' W 046°20'0 0.1
2017-Jan-15 12:25S 24°09' W 046°19'0 0.0
2017-Jan-15 11:31S 24°09' W 046°20'0 0.0
2017-Jan-15 10:25S 24°09' W 046°20'0 0.1
2017-Jan-15 09:31S 24°08' W 046°20'0 0.0
2017-Jan-15 08:31S 24°08' W 046°20'0 0.0
2017-Jan-15 07:31S 24°08' W 046°20'0 0.0
2017-Jan-15 06:28S 24°08' W 046°20'0 0.0
2017-Jan-15 05:31S 24°08' W 046°20'0 0.0
2017-Jan-15 04:31S 24°08' W 046°20'0 0.0
2017-Jan-15 03:31S 24°08' W 046°20'0 0.0
2017-Jan-15 02:31S 24°08' W 046°20'0 0.0
2017-Jan-15 01:31S 24°08' W 046°20'0 0.0
2017-Jan-15 00:31S 24°08' W 046°20'0 0.0
2017-Jan-14 23:31S 24°08' W 046°20'0 0.1
2017-Jan-14 22:31S 24°09' W 046°20'0 0.1
2017-Jan-14 21:33S 24°09' W 046°19'5 5.3
2017-Jan-14 20:33S 24°14' W 046°21'1211.7
2017-Jan-14 19:33S 24°24' W 046°26'1312.9
2017-Jan-14 18:33S 24°34' W 046°35'  
2017-Jan-09 22:18S 25°40' W 048°15'0 0.0
2017-Jan-09 21:33S 25°40' W 048°16'0 0.0
2017-Jan-09 20:27S 25°40' W 048°16'  

Dump ship's entire track history